Tiempo atmosférico en la estación meteorológica de Ledesma, Salamanca (790 m.)



Fecha
DESCASC
Temp. máxima en grados centígrados (hora)
DESCASC
Temp. mínima en grados centígrados (hora)
DESCASC
Temp. media en grados centígrados
DESCASC
Racha de viento máxima en m/sg (hora)
DESCASC
Velocidad máxima media en intervalos de 10 minutos(hora)
DESCASC
Precipitaciones diarias en mm
DESCASC
Precipitaciones de 00:00 a 06:00 en mm
DESCASC
Precipitaciones de 06:00 a 12:00 en mm
DESCASC
Precipitaciones de 12:00 a 18:00 en mm
DESCASC
Precipitaciones de 18:00 a 24:00 en mm
DESCASC
21-01-2021 10.1 (16:40) 6.7 (08:20) 8.4 15.28 (14:50) 8.89 (14:10) 2.4 0 0.2 2.2 0
20-01-2021 9.6 (13:20) 4.2 (00:00) 6.9 18.61 (12:10) 10.83 (12:10) 3.6 0.2 0 2.4 1
19-01-2021 10 (14:30) -6 (08:50) 2 10.28 (15:20) 5.83 (14:30) 0 0 0 0 0
18-01-2021 12 (16:40) -5.1 (07:50) 3.5 5.56 (15:00) 3.61 (14:50) 0 0 0 0 0
17-01-2021 10.3 (17:20) -9 (-00:0) 0.7 3.06 (13:20) 2.5 (13:20) 0 0 0 0 0
16-01-2021 8.4 (14:50) -6.9 (-00:0) 0.7 3.89 (15:30) 3.33 (15:30) 0.2 0 0.2 0 0
15-01-2021 2.7 (17:10) -5.9 (-00:0) -1.6 7.22 (15:30) 5.56 (15:50) 0 0 0 0 0
14-01-2021 9.1 (15:00) -8.3 (08:40) 0.4 4.72 (15:30) 3.61 (15:30) 0 0 0 0 0
13-01-2021 7.1 (14:30) -8.6 (-00:0) -0.8 4.17 (15:20) 3.06 (15:20) 0 0 0 0 0
12-01-2021 7.9 (16:20) -8.9 (-00:0) -0.5 3.89 (13:10) 2.5 (13:10) 0 0 0 0 0
11-01-2021 3.4 (16:40) -7.9 (-00:0) -2.3 10 (12:50) 6.39 (13:30) 0 0 0 0 0
10-01-2021 2.7 (16:00) -2.1 (01:40) 0.3 13.89 (06:10) 9.17 (06:10) 0 0 0 0 0
09-01-2021 -0.8 (14:50) -2.6 (-00:0) -1.7 19.44 (09:50) 12.78 (09:50) 0 0 0 0 0
08-01-2021 1 (16:00) -5.6 (-00:0) -2.3 15 (15:00) 8.89 (23:40) 0 0 0 0 0
07-01-2021 2.9 (16:10) -5.5 (-00:0) -1.3 9.44 (13:20) 6.67 (12:30) 0.2 0 0 0.2 0
06-01-2021 4.5 (15:40) -7.9 (-00:0) -1.7 6.67 (23:59) 4.44 (17:00) 0 0 0 0 0
05-01-2021 5.9 (17:00) -8.3 (-00:0) -1.2 3.06 (14:20) 1.67 (14:20) 0 0 0 0 0
04-01-2021 4.3 (16:00) -5.2 (-00:0) -0.4 7.78 (13:50) 4.17 (13:30) 0 0 0 0 0
03-01-2021 4.6 (15:50) -6.5 (-00:0) -1 9.72 (14:40) 5.56 (16:10) 0 0 0 0 0
02-01-2021 5.8 (16:50) -6.3 (-00:0) -0.3 6.94 (14:10) 4.17 (15:10) 0 0 0 0 0
01-01-2021 4.9 (15:10) -1.2 (-00:0) 1.9 10 (13:50) 5.56 (16:40) 0 0 0 0 0
31-12-2020 7.2 (16:50) -0.5 (-00:0) 3.3 10.56 (14:10) 6.11 (11:00) 1.4 0 0 0.6 0.8
30-12-2020 5 (12:50) -1.7 (-00:0) 1.6 9.17 (12:40) 5.56 (12:30) 0 0 0 0 0
29-12-2020 5.9 (15:50) 0.4 (00:00) 3.2 13.06 (12:20) 6.67 (12:30) 0.2 0 0.2 0 0
28-12-2020 7 (02:00) 1.9 (00:00) 4.4 19.72 (00:20) 10.28 (03:20) 7.6 7.4 0.2 0 0
27-12-2020 6.3 (23:59) -5.5 (-00:0) 0.4 18.89 (23:30) 11.39 (23:50) 0 0 0 0 0
26-12-2020 6.1 (15:10) -5.2 (-00:0) 0.5 6.11 (12:10) 3.61 (12:50) 0 0 0 0 0

Gráficas

Temp. máximas Temp. mínimas Temp. medias Precipitaciones Rachas de viento máximas Velocidades máximas media en intervalos de 10 minutos

Datos horarios

Fecha y hora oficial Temperatura (ºC) Velocidad del viento (km/h) Dirección del viento Racha (km/h) Dirección de racha Precipitación (mm) Presión (hPa) Tendencia (hPa) Humedad (%)
2021-01-24 23:00:00 -- -- -- -- -- -- -- -- --
2021-01-24 22:00:00 7.1 10 Sudoeste 15 Sudoeste 0 -- -- 90
2021-01-24 21:00:00 7.6 9 Oeste 22 Oeste 0 -- -- 86
2021-01-24 20:00:00 7.9 11 Oeste 22 Oeste 0 -- -- 88
2021-01-24 19:00:00 7.8 5 Sudoeste 17 Sudoeste 0 -- -- 84
2021-01-24 18:00:00 8.4 9 Oeste 22 Oeste 0 -- -- 80
2021-01-24 17:00:00 8.9 15 Oeste 36 Oeste 0 -- -- 77
2021-01-24 16:00:00 9.5 21 Oeste 37 Oeste 0 -- -- 76
2021-01-24 15:00:00 8.4 16 Oeste 33 Oeste 0 -- -- 83
2021-01-24 14:00:00 8.2 19 Oeste 39 Oeste 0 -- -- 79
2021-01-24 13:00:00 8 19 Oeste 36 Oeste 0 -- -- 79
2021-01-24 12:00:00 7.6 16 Oeste 33 Oeste 0 -- -- 83
2021-01-24 11:00:00 7.4 15 Oeste 25 Oeste 0 -- -- 87
2021-01-24 10:00:00 4.9 8 Sudoeste 16 Sudoeste 0 -- -- 92
2021-01-24 09:00:00 4.8 4 Sudoeste 26 Oeste 0 -- -- 91
2021-01-24 08:00:00 5.8 12 Noroeste 26 Oeste 0 -- -- 85
2021-01-24 07:00:00 5.9 5 Oeste 28 Oeste 0 -- -- 88
2021-01-24 06:00:00 5.8 8 Oeste 33 Oeste 0 -- -- 89
2021-01-24 05:00:00 6.6 18 Oeste 48 Oeste 0 -- -- 87
2021-01-24 04:00:00 7 24 Oeste 41 Oeste 0 -- -- 90
2021-01-24 03:00:00 7.4 17 Oeste 34 Oeste 0 -- -- 89
2021-01-24 02:00:00 7.2 16 Oeste 41 Oeste 0 -- -- 87
2021-01-24 01:00:00 7.1 19 Oeste 47 Oeste 0 -- -- 87
2021-01-24 00:00:00 7.3 23 Oeste 45 Oeste 0 -- -- 90
2021-01-23 23:00:00 7.2 18 Oeste 39 Oeste 0 -- -- 88
2021-01-23 22:00:00 7.9 17 Oeste 58 Noroeste 0.2 -- -- 89
2021-01-23 21:00:00 9.3 25 Noroeste 52 Noroeste 0.2 -- -- 94
2021-01-23 20:00:00 10.5 26 Oeste 47 Sudoeste 0.8 -- -- 100
2021-01-23 19:00:00 9.9 24 Oeste 48 Oeste 1.4 -- -- 100
2021-01-23 18:00:00 9.4 29 Sudoeste 51 Sudoeste 0.6 -- -- 100
2021-01-23 17:00:00 9.3 30 Sudoeste 53 Sudoeste 3 -- -- 99
2021-01-23 16:00:00 8.6 29 Oeste 52 Sudoeste 0.4 -- -- 99
2021-01-23 15:00:00 8 30 Oeste 51 Sudoeste 0 -- -- 98
2021-01-23 14:00:00 7.4 29 Sudoeste 55 Sudoeste 0 -- -- 96
2021-01-23 13:00:00 7.3 32 Sudoeste 55 Oeste 0.2 -- -- 90
2021-01-23 12:00:00 5.8 25 Sudoeste 43 Sudoeste 0 -- -- 96
2021-01-23 11:00:00 5.5 21 Sudoeste 50 Sudoeste 0 -- -- 93
2021-01-23 10:00:00 5.6 24 Oeste 43 Oeste 0 -- -- 94
2021-01-23 09:00:00 5.5 23 Oeste 38 Sudoeste 0 -- -- 95
2021-01-23 08:00:00 5.3 19 Oeste 47 Oeste 0 -- -- 97
2021-01-23 07:00:00 4.9 21 Oeste 37 Oeste 0 -- -- 95
2021-01-23 06:00:00 4.6 21 Oeste 43 Oeste 0 -- -- 94
2021-01-23 05:00:00 4.3 20 Oeste 37 Oeste 0 -- -- 95
2021-01-23 04:00:00 3.8 15 Sudoeste 38 Sudoeste 0 -- -- 95
2021-01-23 03:00:00 4 17 Oeste 35 Oeste 0.2 -- -- 96
2021-01-23 02:00:00 4.2 19 Oeste 35 Oeste 0 -- -- 94
2021-01-23 01:00:00 4.1 18 Sudoeste 30 Sudoeste 0 -- -- 94
2021-01-23 00:00:00 4.3 12 Sudoeste 26 Oeste 0 -- -- 95
2021-01-22 23:00:00 4.4 10 Oeste 29 Sudoeste 0.2 -- -- 94
2021-01-22 22:00:00 4.7 13 Oeste 29 Oeste 0 -- -- 89
2021-01-22 21:00:00 4.8 14 Oeste 30 Oeste 0 -- -- 92
2021-01-22 20:00:00 4.6 14 Oeste 27 Oeste 0 -- -- 89
2021-01-22 19:00:00 4.9 13 Oeste 28 Oeste 0 -- -- 90
2021-01-22 18:00:00 5.6 13 Oeste 35 Oeste 0 -- -- 87
2021-01-22 17:00:00 6.5 20 Oeste 37 Oeste 0 -- -- 83
2021-01-22 16:00:00 7.4 24 Oeste 39 Oeste 0 -- -- 84
2021-01-22 15:00:00 6.8 22 Oeste 41 Oeste 0 -- -- 83
2021-01-22 14:00:00 6.8 23 Oeste 42 Oeste 0 -- -- 89
2021-01-22 13:00:00 5.6 20 Oeste 36 Oeste 0 -- -- 94
2021-01-22 12:00:00 4.7 14 Oeste 37 Noroeste 1.4 -- -- 96
2021-01-22 11:00:00 5.2 18 Oeste 40 Oeste 0.2 -- -- 95
2021-01-22 10:00:00 5 18 Oeste 44 Oeste 0 -- -- 95
2021-01-22 09:00:00 4.9 20 Oeste 46 Oeste 0.2 -- -- 95
2021-01-22 08:00:00 4.9 24 Oeste 49 Sudoeste 0.2 -- -- 96
2021-01-22 07:00:00 5.3 24 Oeste 54 Oeste 0 -- -- 89
2021-01-22 06:00:00 5.6 29 Oeste 58 Oeste 0 -- -- 84
2021-01-22 05:00:00 5.2 25 Oeste 67 Oeste 1 -- -- 92
2021-01-22 04:00:00 6.3 31 Oeste 70 Oeste 1.8 -- -- 93
2021-01-22 03:00:00 8.4 43 Oeste 85 Sudoeste 0.8 -- -- 93
2021-01-22 02:00:00 9.1 39 Sudoeste 73 Sudoeste 0 -- -- 91
2021-01-22 01:00:00 8.5 30 Sudoeste 51 Sudoeste 0 -- -- 90
2021-01-22 00:00:00 8.6 25 Sudoeste 42 Sudoeste 0 -- -- 91
2021-01-21 23:00:00 8.9 22 Sudoeste 41 Sudoeste 0 -- -- 90
2021-01-21 22:00:00 8.9 22 Sudoeste 36 Oeste 0 -- -- 93
2021-01-21 21:00:00 8.9 24 Sudoeste 40 Oeste 0 -- -- 94
2021-01-21 20:00:00 8.9 16 Oeste 42 Oeste 0 -- -- 95
2021-01-21 19:00:00 9.3 23 Oeste 46 Sudoeste 0 -- -- 93
2021-01-21 18:00:00 9.9 26 Oeste 45 Oeste 0.4 -- -- 96
2021-01-21 17:00:00 9.9 31 Oeste 51 Sudoeste 1 -- -- 97
2021-01-21 16:00:00 9.4 23 Sudoeste 49 Oeste 0 -- -- 95
2021-01-21 15:00:00 9.2 29 Sudoeste 55 Sudoeste 0.2 -- -- 94
2021-01-21 14:00:00 9 29 Sudoeste 47 Sudoeste 0.4 -- -- 96
2021-01-21 13:00:00 8.4 29 Sudoeste 54 Oeste 0.2 -- -- 96
2021-01-21 12:00:00 8.1 31 Sudoeste 50 Sudoeste 0 -- -- 93
2021-01-21 11:00:00 8.1 27 Sudoeste 50 Sudoeste 0 -- -- 92
2021-01-21 10:00:00 7.6 25 Sudoeste 43 Sudoeste 0 -- -- 95
2021-01-21 09:00:00 6.8 18 Sudoeste 31 Sudoeste 0 -- -- 98
2021-01-21 08:00:00 6.8 17 Sudoeste 31 Sudoeste 0 -- -- 97
2021-01-21 07:00:00 7 13 Sudoeste 26 Sudoeste 0.2 -- -- 99
2021-01-21 06:00:00 7.2 16 Sudoeste 28 Oeste 0 -- -- 96
2021-01-21 05:00:00 7.3 14 Sudoeste 26 Sudoeste 0 -- -- 96
2021-01-21 04:00:00 7.3 18 Sudoeste 31 Oeste 0 -- -- 95
2021-01-21 03:00:00 7.5 17 Sudoeste 32 Sudoeste 0 -- -- 97
2021-01-21 02:00:00 7.4 13 Sudoeste 26 Oeste 0 -- -- 97
2021-01-21 01:00:00 7.6 17 Oeste 35 Oeste 0 -- -- 95
2021-01-21 00:00:00 7.7 17 Sudoeste 34 Sudoeste 0 -- -- 95
2021-01-20 23:00:00 7.8 19 Sudoeste 40 Sudoeste 0 -- -- 96
2021-01-20 22:00:00 7.7 19 Sudoeste 34 Sudoeste 0 -- -- 96
2021-01-20 21:00:00 7.6 19 Sudoeste 40 Sudoeste 0 -- -- 96
2021-01-20 20:00:00 7.6 19 Sudoeste 37 Oeste 0 -- -- 97
2021-01-20 19:00:00 7.9 22 Oeste 42 Sudoeste 1 -- -- 96
2021-01-20 18:00:00 8 22 Oeste 44 Oeste 1 -- -- 96
2021-01-20 17:00:00 8.6 19 Sudoeste 46 Sudoeste 0.2 -- -- 94
2021-01-20 16:00:00 8.9 24 Sudoeste 46 Oeste 0 -- -- 93
2021-01-20 15:00:00 8.7 28 Sudoeste 45 Sudoeste 1.2 -- -- 93
2021-01-20 14:00:00 8.9 28 Sudoeste 56 Sudoeste 0 -- -- 87
2021-01-20 13:00:00 9.3 35 Sudoeste 67 Sudoeste 0 -- -- 81
2021-01-20 12:00:00 8.6 35 Sudoeste 57 Sudoeste 0 -- -- 82
2021-01-20 11:00:00 7.9 28 Sudoeste 42 Sudoeste 0 -- -- 81
2021-01-20 10:00:00 6.4 20 Sudoeste 39 Sudoeste 0 -- -- 84
2021-01-20 09:00:00 6 24 Sudoeste 53 Sudoeste 0 -- -- 84
2021-01-20 08:00:00 6.8 32 Sudoeste 60 Oeste 0 -- -- 79
2021-01-20 07:00:00 6.6 26 Sudoeste 48 Sudoeste 0 -- -- 83
2021-01-20 06:00:00 6.3 26 Sudoeste 42 Sur 0.2 -- -- 85
2021-01-20 05:00:00 6.6 20 Sudoeste 35 Sur 0 -- -- 81
2021-01-20 04:00:00 6.4 23 Sudoeste 38 Sudoeste 0 -- -- 80
2021-01-20 03:00:00 6.2 22 Sudoeste 37 Sudoeste 0 -- -- 81
2021-01-20 02:00:00 5.9 20 Sudoeste 34 Sudoeste 0 -- -- 81
2021-01-20 01:00:00 5.5 6 Sudoeste 24 Sudoeste 0 -- -- 83
2021-01-20 00:00:00 4.2 5 Sur 10 Sudoeste 0 -- -- 87
2021-01-19 23:00:00 4.6 3 Sur 17 Sudoeste 0 -- -- 85
2021-01-19 22:00:00 4.4 9 Sudoeste 19 Oeste 0 -- -- 87
2021-01-19 21:00:00 2.9 3 Sudeste 12 Oeste 0 -- -- 87
2021-01-19 20:00:00 4.2 6 Sudoeste 21 Sudoeste 0 -- -- 86
2021-01-19 19:00:00 5.3 8 Sudoeste 18 Sudoeste 0 -- -- 78
2021-01-19 18:00:00 6.8 8 Oeste 21 Oeste 0 -- -- 70
2021-01-19 17:00:00 8 10 Oeste 24 Sudoeste 0 -- -- 65
2021-01-19 16:00:00 9.1 12 Sudoeste 37 Sudoeste 0 -- -- 60
2021-01-19 15:00:00 9.7 15 Sudoeste 35 Oeste 0 -- -- 52
2021-01-19 14:00:00 9.7 9 Sudoeste 19 Sudoeste 0 -- -- 57
2021-01-19 13:00:00 7.2 3 Sur 6 Sudoeste 0 -- -- 69
2021-01-19 12:00:00 5.2 2 Sur 4 Sur 0 -- -- 76
2021-01-19 11:00:00 2.6 0 Calma 2 Sudoeste 0 -- -- 88
2021-01-19 10:00:00 -2.2 0 Calma 2 Sudeste 0 -- -- 99
2021-01-19 09:00:00 -5.7 0 Calma 4 Sudeste 0 -- -- 97
2021-01-19 08:00:00 -5.9 0 Calma 3 Sudeste 0 -- -- 96
2021-01-19 07:00:00 -5.2 2 Nordeste 4 Este 0 -- -- 97
2021-01-19 06:00:00 -4.9 0 Calma 4 Sudeste 0 -- -- 97
2021-01-19 05:00:00 -4.6 2 Este 4 Este 0 -- -- 95
2021-01-19 04:00:00 -4.2 0 Calma 4 Sudeste 0 -- -- 95
2021-01-19 03:00:00 -4.4 2 Nordeste 4 Sur 0 -- -- 96
2021-01-19 02:00:00 -3.5 0 Calma 4 Este 0 -- -- 95
2021-01-19 01:00:00 -2.9 0 Calma 5 Sur 0 -- -- 92
2021-01-19 00:00:00 -0.6 3 Sudeste 9 Sudeste 0 -- -- 91
2021-01-18 23:00:00 0.3 4 Sur 7 Sudeste 0 -- -- 90
2021-01-18 22:00:00 2 5 Sudeste 8 Este 0 -- -- 84
2021-01-18 21:00:00 2.4 5 Sudeste 8 Sudeste 0 -- -- 87
2021-01-18 20:00:00 2.3 5 Este 9 Este 0 -- -- 88
2021-01-18 19:00:00 2.5 8 Nordeste 14 Nordeste 0 -- -- 86
2021-01-18 18:00:00 5.7 11 Nordeste 13 Nordeste 0 -- -- 77
2021-01-18 17:00:00 10.8 9 Este 13 Nordeste 0 -- -- 63
2021-01-18 16:00:00 9.3 5 Nordeste 15 Nordeste 0 -- -- 68
2021-01-18 15:00:00 7.8 13 Nordeste 20 Nordeste 0 -- -- 68
2021-01-18 14:00:00 11 4 Sur 10 Sudeste 0 -- -- 56
2021-01-18 13:00:00 8.9 4 Sur 9 Sudoeste 0 -- -- 57
2021-01-18 12:00:00 6.4 0 Calma 4 Sudoeste 0 -- -- 64
2021-01-18 11:00:00 2.7 0 Calma 3 Sudoeste 0 -- -- 79
2021-01-18 10:00:00 -1.4 0 Calma 4 Sudeste 0 -- -- 92
2021-01-18 09:00:00 -4.9 0 Calma 4 Nordeste 0 -- -- 96
2021-01-18 08:00:00 -5.1 2 Nordeste 3 Nordeste 0 -- -- 96
2021-01-18 07:00:00 -4.8 0 Calma 2 Nordeste 0 -- -- 95
2021-01-18 06:00:00 -4.7 0 Calma 3 Nordeste 0 -- -- 95
2021-01-18 05:00:00 -4.3 0 Calma 2 Sur 0 -- -- 95
2021-01-18 04:00:00 -4.2 0 Calma 3 Nordeste 0 -- -- 94
2021-01-18 03:00:00 -4 0 Calma 4 Nordeste 0 -- -- 93
2021-01-18 02:00:00 -4.1 3 Nordeste 5 Nordeste 0 -- -- 93
2021-01-18 01:00:00 -3.6 0 Calma 2 Este 0 -- -- 93
2021-01-18 00:00:00 -3.5 0 Calma 3 Este 0 -- -- 93
2021-01-17 23:00:00 -2.5 0 Calma 4 Este 0 -- -- 94
2021-01-17 22:00:00 -2.4 0 Calma 4 Sudeste 0 -- -- 95
2021-01-17 21:00:00 -1.7 2 Sudeste 7 Sudeste 0 -- -- 89
2021-01-17 20:00:00 -1.5 0 Calma 4 Sur 0 -- -- 90
2021-01-17 19:00:00 2.1 3 Este 9 Nordeste 0 -- -- 80
2021-01-17 18:00:00 6.8 6 Nordeste 8 Nordeste 0 -- -- 61
2021-01-17 17:00:00 9.5 2 Nordeste 8 Nordeste 0 -- -- 47
2021-01-17 16:00:00 8.9 4 Nordeste 8 Nordeste 0 -- -- 47
2021-01-17 15:00:00 7.9 5 Nordeste 9 Nordeste 0 -- -- 56
2021-01-17 14:00:00 6.4 5 Nordeste 11 Nordeste 0 -- -- 62
2021-01-17 13:00:00 6.1 5 Nordeste 8 Nordeste 0 -- -- 67
2021-01-17 12:00:00 3.2 0 Calma 7 Sudeste 0 -- -- 76
2021-01-17 11:00:00 -0.5 3 Sudeste 5 Sudeste 0 -- -- 84
2021-01-17 10:00:00 -4.5 2 Sur 4 Sur 0 -- -- 95
2021-01-17 09:00:00 -8.4 0 Calma 6 Sudeste 0 -- -- 95
2021-01-17 08:00:00 -8.8 0 Calma 8 Nordeste 0 -- -- 93
2021-01-17 07:00:00 -7.9 4 Nordeste 8 Nordeste 0 -- -- 93
2021-01-17 06:00:00 -7.6 3 Este 5 Nordeste 0 -- -- 93
2021-01-17 05:00:00 -6.9 5 Nordeste 10 Nordeste 0 -- -- 94
2021-01-17 04:00:00 -6.6 2 Nordeste 6 Nordeste 0 -- -- 94
2021-01-17 03:00:00 -6.8 2 Sudeste 3 Sudeste 0 -- -- 96
2021-01-17 02:00:00 -6.4 0 Calma 4 Nordeste 0 -- -- 95
2021-01-17 01:00:00 -5.2 2 Este 6 Nordeste 0 -- -- 94
2021-01-17 00:00:00 -4.5 5 Nordeste 10 Nordeste 0 -- -- 95
2021-01-16 23:00:00 -4.4 0 Calma 3 Nordeste 0 -- -- 97
2021-01-16 22:00:00 -4 2 Este 3 Este 0 -- -- 96
2021-01-16 21:00:00 -3.1 0 Calma 4 Este 0 -- -- 95
2021-01-16 20:00:00 -2.3 3 Nordeste 7 Nordeste 0 -- -- 96
2021-01-16 19:00:00 -0.5 5 Nordeste 9 Nordeste 0 -- -- 91
2021-01-16 18:00:00 4.3 4 Nordeste 8 Nordeste 0 -- -- 80
2021-01-16 17:00:00 7.4 3 Nordeste 8 Nordeste 0 -- -- 74
2021-01-16 16:00:00 6.3 8 Nordeste 14 Nordeste 0 -- -- 79
2021-01-16 15:00:00 8.3 4 Noroeste 11 Noroeste 0 -- -- 74
2021-01-16 14:00:00 5.4 3 Oeste 7 Noroeste 0 -- -- 82
2021-01-16 13:00:00 3.6 3 Sudoeste 4 Oeste 0 -- -- 87
2021-01-16 12:00:00 0.8 0 Calma 4 Sur 0 -- -- 100
2021-01-16 11:00:00 -0.7 0 Calma 2 Nordeste 0.2 -- -- 100
2021-01-16 10:00:00 -3.5 0 Calma -- -- 0 -- -- 100
2021-01-16 09:00:00 -6.7 0 Calma -- -- 0 -- -- 97
2021-01-16 08:00:00 -5.8 0 Calma -- -- 0 -- -- 98
2021-01-16 07:00:00 -5.1 0 Calma -- -- 0 -- -- 98
2021-01-16 06:00:00 -5.1 0 Calma -- -- 0 -- -- 99
2021-01-16 05:00:00 -5 0 Calma -- -- 0 -- -- 99
2021-01-16 04:00:00 -4.9 0 Calma -- -- 0 -- -- 99
2021-01-16 03:00:00 -4.8 0 Calma -- -- 0 -- -- 99
2021-01-16 02:00:00 -4.5 0 Calma -- -- 0 -- -- 99
2021-01-16 01:00:00 -4.3 0 Calma -- -- 0 -- -- 100
2021-01-16 00:00:00 -4 0 Calma -- -- 0 -- -- 100
2021-01-15 23:00:00 -4.2 0 Calma -- -- 0 -- -- 100
2021-01-15 22:00:00 -3.3 0 Calma 8 Este 0 -- -- 100
2021-01-15 21:00:00 -2.8 7 Nordeste 10 Nordeste 0 -- -- 100
2021-01-15 20:00:00 -2.6 4 Nordeste 6 Nordeste 0 -- -- 100
2021-01-15 19:00:00 -1.8 3 Nordeste 16 Nordeste 0 -- -- 99
2021-01-15 18:00:00 -0.6 10 Nordeste 14 Nordeste 0 -- -- 95
2021-01-15 17:00:00 2.4 7 Este 22 Nordeste 0 -- -- 93
2021-01-15 16:00:00 0.8 20 Nordeste 26 Nordeste 0 -- -- 97
2021-01-15 15:00:00 1.6 12 Nordeste 21 Nordeste 0 -- -- 99
2021-01-15 14:00:00 0.8 12 Nordeste 16 Nordeste 0 -- -- 100
2021-01-15 13:00:00 1.4 9 Nordeste 11 Nordeste 0 -- -- 100
2021-01-15 12:00:00 -0.1 3 Sudeste 13 Nordeste 0 -- -- 100
2021-01-15 11:00:00 -2.1 11 Nordeste 19 Nordeste 0 -- -- 100
2021-01-15 10:00:00 -2.2 2 Nordeste 5 Nordeste 0 -- -- 100
2021-01-15 09:00:00 -5.5 0 Calma 7 Sudeste 0 -- -- 98
2021-01-15 08:00:00 -4.2 4 Sudeste 7 Sudeste 0 -- -- 99
2021-01-15 07:00:00 -4.3 2 Sudeste 4 Sudeste 0 -- -- 98
2021-01-15 06:00:00 -4 0 Calma 3 Sudeste 0 -- -- 98
2021-01-15 05:00:00 -5.6 2 Este 4 Este 0 -- -- 97
2021-01-15 04:00:00 -5.3 0 Calma 4 Nordeste 0 -- -- 95
2021-01-15 03:00:00 -5.6 0 Calma 3 Oeste 0 -- -- 94
2021-01-15 02:00:00 -4.8 2 Nordeste 5 Sudeste 0 -- -- 93
2021-01-15 01:00:00 -4.7 2 Este 3 Nordeste 0 -- -- 95
2021-01-15 00:00:00 -4.1 0 Calma 3 Sudeste 0 -- -- 93
2021-01-14 23:00:00 -2.7 2 Este 5 Sudeste 0 -- -- 94
2021-01-14 22:00:00 -2.9 2 Sudeste 4 Sudeste 0 -- -- 93
2021-01-14 21:00:00 -2.9 0 Calma 5 Sudeste 0 -- -- 91
2021-01-14 20:00:00 -1.7 2 Sudeste 5 Este 0 -- -- 85
2021-01-14 19:00:00 -1.7 4 Nordeste 7 Nordeste 0 -- -- 86
2021-01-14 18:00:00 2.5 5 Nordeste 17 Nordeste 0 -- -- 70
2021-01-14 17:00:00 4.7 8 Nordeste 15 Nordeste 0 -- -- 66
2021-01-14 16:00:00 5.9 8 Nordeste 17 Nordeste 0 -- -- 67
2021-01-14 15:00:00 9.1 3 Oeste 7 Sudoeste 0 -- -- 54
2021-01-14 14:00:00 8.1 3 Oeste 8 Sudeste 0 -- -- 56
2021-01-14 13:00:00 6.2 3 Sudoeste 6 Sudoeste 0 -- -- 63
2021-01-14 12:00:00 3.8 0 Calma 4 Oeste 0 -- -- 76
2021-01-14 11:00:00 -1.1 0 Calma 4 Sudeste 0 -- -- 87
2021-01-14 10:00:00 -4.8 0 Calma 2 Sur 0 -- -- 97
2021-01-14 09:00:00 -8.1 0 Calma 2 Sudeste 0 -- -- 95
2021-01-14 08:00:00 -7.9 0 Calma 4 Nordeste 0 -- -- 94
2021-01-14 07:00:00 -8.1 2 Este 3 Este 0 -- -- 94
2021-01-14 06:00:00 -7.8 0 Calma 2 Sudeste 0 -- -- 94
2021-01-14 05:00:00 -7.5 0 Calma 3 Sudeste 0 -- -- 94
2021-01-14 04:00:00 -7 0 Calma 4 Este 0 -- -- 95
2021-01-14 03:00:00 -6.5 0 Calma 2 Este 0 -- -- 95
2021-01-14 02:00:00 -6.6 2 Este 2 Sudeste 0 -- -- 95
2021-01-14 01:00:00 -6.2 0 Calma 2 Sudeste 0 -- -- 95
2021-01-14 00:00:00 -5.4 2 Sudeste 4 Sudeste 0 -- -- 96
2021-01-13 23:00:00 -5.8 2 Este 4 Nordeste 0 -- -- 95
2021-01-13 22:00:00 -5.4 0 Calma 4 Este 0 -- -- 92
2021-01-13 21:00:00 -4.3 2 Este 4 Nordeste 0 -- -- 92
2021-01-13 20:00:00 -3.4 2 Nordeste 6 Nordeste 0 -- -- 92
2021-01-13 19:00:00 -1 5 Nordeste 12 Nordeste 0 -- -- 84
2021-01-13 18:00:00 2.7 9 Nordeste 12 Nordeste 0 -- -- 73
2021-01-13 17:00:00 6.5 5 Nordeste 10 Nordeste 0 -- -- 62
2021-01-13 16:00:00 6.2 8 Nordeste 15 Nordeste 0 -- -- 65
2021-01-13 15:00:00 6.5 8 Nordeste 12 Nordeste 0 -- -- 63
2021-01-13 14:00:00 6.3 3 Norte 12 Nordeste 0 -- -- 64
2021-01-13 13:00:00 6.2 4 Sudeste 9 Sudeste 0 -- -- 63
2021-01-13 12:00:00 3.5 2 Sudoeste 4 Sur 0 -- -- 70
2021-01-13 11:00:00 -0.1 2 Sudeste 3 Sudeste 0 -- -- 81
2021-01-13 10:00:00 -4.8 2 Sudeste 3 Sudeste 0 -- -- 95
2021-01-13 09:00:00 -8.4 0 Calma 4 Nordeste 0 -- -- 95
2021-01-13 08:00:00 -8.2 0 Calma 2 Sudoeste 0 -- -- 93
2021-01-13 07:00:00 -7 0 Calma 4 Sudeste 0 -- -- 94
2021-01-13 06:00:00 -7.6 2 Este 4 Sudeste 0 -- -- 93
2021-01-13 05:00:00 -7.3 0 Calma 5 Sudeste 0 -- -- 94
2021-01-13 04:00:00 -6.9 0 Calma 5 Sudeste 0 -- -- 93
2021-01-13 03:00:00 -5.9 0 Calma -- -- -- -- -- 94
2021-01-13 02:00:00 -6.3 2 Sudeste 5 Sudeste 0 -- -- 95
2021-01-13 01:00:00 -5.9 2 Este 5 Sur 0 -- -- 93
2021-01-13 00:00:00 -5.4 2 Sudeste 6 Sudeste 0 -- -- 92
2021-01-12 23:00:00 -2.9 4 Sudeste 8 Este 0 -- -- 90
2021-01-12 22:00:00 -3.2 5 Sudeste 8 Sudeste 0 -- -- 93
2021-01-12 21:00:00 -4.9 2 Este -- -- 0 -- -- 92
2021-01-12 20:00:00 -3.7 2 Este 5 Nordeste 0 -- -- 90
2021-01-12 19:00:00 -1.9 3 Nordeste 6 Nordeste 0 -- -- 86
2021-01-12 18:00:00 4.1 6 Nordeste 8 Nordeste 0 -- -- 68
2021-01-12 17:00:00 7.9 3 Noroeste 7 Noroeste 0 -- -- 58
2021-01-12 16:00:00 7.4 3 Norte 6 Sudoeste 0 -- -- 59
2021-01-12 15:00:00 6.2 3 Nordeste 8 Nordeste 0 -- -- 61
2021-01-12 14:00:00 4.5 4 Nordeste 14 Nordeste 0 -- -- 68
2021-01-12 13:00:00 3.8 6 Nordeste 11 Este 0 -- -- 69
2021-01-12 12:00:00 2.3 6 Este 9 Este 0 -- -- 72
2021-01-12 11:00:00 -1.2 4 Este 7 Este 0 -- -- 87
2021-01-12 10:00:00 -5.5 0 Calma 2 Este 0 -- -- 98
2021-01-12 09:00:00 -8.4 0 Calma 3 Nordeste 0 -- -- 95
2021-01-12 08:00:00 -8.6 0 Calma 3 Nordeste 0 -- -- 95
2021-01-12 07:00:00 -8.7 0 Calma 4 Nordeste 0 -- -- 93
2021-01-12 06:00:00 -7.9 0 Calma 2 Sur 0 -- -- 94
2021-01-12 05:00:00 -7.6 2 Nordeste 4 Nordeste 0 -- -- 94
2021-01-12 04:00:00 -7 0 Calma 4 Nordeste 0 -- -- 92
2021-01-12 03:00:00 -6.3 2 Nordeste 7 Este 0 -- -- 93
2021-01-12 02:00:00 -6.3 5 Este 8 Este 0 -- -- 94
2021-01-12 01:00:00 -5.4 3 Este 8 Este 0 -- -- 90
2021-01-12 00:00:00 -5.9 3 Este 6 Este 0 -- -- 92
2021-01-11 23:00:00 -3.8 3 Este 9 Este 0 -- -- 88
2021-01-11 22:00:00 -2.9 2 Este 7 Este 0 -- -- 87
2021-01-11 21:00:00 -3.5 3 Este 9 Este 0 -- -- 87
2021-01-11 20:00:00 -1.4 2 Este 10 Este 0 -- -- 79
2021-01-11 19:00:00 -1.3 5 Nordeste 15 Este 0 -- -- 82
2021-01-11 18:00:00 2.1 10 Este 22 Este 0 -- -- 72
2021-01-11 17:00:00 3.3 13 Este 24 Nordeste 0 -- -- 69
2021-01-11 16:00:00 3.1 14 Este 25 Nordeste 0 -- -- 69
2021-01-11 15:00:00 3.1 13 Este 30 Este 0 -- -- 68
2021-01-11 14:00:00 2.3 21 Este 35 Este 0 -- -- 68
2021-01-11 13:00:00 2 21 Este 36 Este 0 -- -- 68
2021-01-11 12:00:00 1.9 15 Este 28 Sudeste 0 -- -- 70
2021-01-11 11:00:00 -0.1 8 Este 15 Este 0 -- -- 78
2021-01-11 10:00:00 -5.2 0 Calma 4 Este 0 -- -- 96
2021-01-11 09:00:00 -7.8 0 Calma 8 Nordeste 0 -- -- 89
2021-01-11 08:00:00 -5.4 3 Este 10 Este 0 -- -- 93
2021-01-11 07:00:00 -5.2 6 Este 11 Este 0 -- -- 94
2021-01-11 06:00:00 -6.6 2 Nordeste 12 Nordeste 0 -- -- 86
2021-01-11 05:00:00 -3.1 9 Este 14 Este 0 -- -- 85
2021-01-11 04:00:00 -4.1 4 Este 8 Este 0 -- -- 87
2021-01-11 03:00:00 -3.9 6 Este 13 Este 0 -- -- 83
2021-01-11 02:00:00 -2.6 5 Este 21 Este 0 -- -- 81
2021-01-11 01:00:00 -1.8 10 Este 27 Este 0 -- -- 79
2021-01-11 00:00:00 -1.5 12 Este 31 Este 0 -- -- 78
2021-01-10 23:00:00 -0.9 19 Este 32 Este 0 -- -- 76
2021-01-10 22:00:00 -1.2 18 Este 27 Este 0 -- -- 78
2021-01-10 21:00:00 -1 14 Este 28 Este 0 -- -- 78
2021-01-10 20:00:00 -0.6 14 Este 24 Este 0 -- -- 77
2021-01-10 19:00:00 -0.8 6 Nordeste 28 Nordeste 0 -- -- 77
2021-01-10 18:00:00 1.3 16 Este 40 Este 0 -- -- 71
2021-01-10 17:00:00 2.6 21 Este 38 Este 0 -- -- 68
2021-01-10 16:00:00 2.7 23 Este 39 Este 0 -- -- 68
2021-01-10 15:00:00 2.4 22 Este 44 Este 0 -- -- 71
2021-01-10 14:00:00 2.3 29 Este 45 Este 0 -- -- 71
2021-01-10 13:00:00 1.7 28 Este 40 Este 0 -- -- 74
2021-01-10 12:00:00 1.9 22 Este 37 Este 0 -- -- 75
2021-01-10 11:00:00 0.7 17 Este 34 Este 0 -- -- 79
2021-01-10 10:00:00 0.2 17 Este 36 Este 0 -- -- 83
2021-01-10 09:00:00 0.3 20 Este 41 Nordeste 0 -- -- 83
2021-01-10 08:00:00 0.1 23 Este 41 Este 0 -- -- 87
2021-01-10 07:00:00 -0.7 21 Este 50 Este 0 -- -- 94
2021-01-10 06:00:00 -0.8 31 Nordeste 44 Este 0 -- -- 94
2021-01-10 05:00:00 -1.2 30 Nordeste 42 Nordeste 0 -- -- 94
2021-01-10 04:00:00 -1.4 27 Nordeste 40 Este 0 -- -- 91
2021-01-10 03:00:00 -1.7 27 Nordeste 42 Nordeste 0 -- -- 91
2021-01-10 02:00:00 -1.9 26 Nordeste 38 Nordeste 0 -- -- 93
2021-01-10 01:00:00 -1.7 22 Nordeste 32 Nordeste 0 -- -- 93
2021-01-10 00:00:00 -1.6 21 Nordeste 34 Este 0 -- -- 94
2021-01-09 23:00:00 -1.6 23 Este 38 Este 0 -- -- 93
2021-01-09 22:00:00 -1.5 23 Nordeste 42 Este 0 -- -- 94
2021-01-09 21:00:00 -1.3 30 Este 44 Este 0 -- -- 93
2021-01-09 20:00:00 -1 24 Nordeste 47 Nordeste 0 -- -- 94
2021-01-09 19:00:00 -0.9 23 Nordeste 39 Este 0 -- -- 94
2021-01-09 18:00:00 -1 21 Nordeste 36 Este 0 -- -- 95
2021-01-09 17:00:00 -0.8 24 Nordeste 40 Nordeste 0 -- -- 93
2021-01-09 16:00:00 -0.8 27 Nordeste 49 Nordeste 0 -- -- 93
2021-01-09 15:00:00 -0.8 26 Nordeste 52 Nordeste 0 -- -- 93
2021-01-09 14:00:00 -1 36 Nordeste 58 Nordeste 0 -- -- 90
2021-01-09 13:00:00 -1.2 38 Nordeste 64 Nordeste 0 -- -- 90
2021-01-09 12:00:00 -1.2 43 Nordeste 66 Nordeste 0 -- -- 88
2021-01-09 11:00:00 -1.5 41 Nordeste 63 Nordeste 0 -- -- 87
2021-01-09 10:00:00 -2.1 44 Nordeste 70 Nordeste 0 -- -- 89
2021-01-09 09:00:00 -2.4 45 Nordeste 66 Nordeste 0 -- -- 92
2021-01-09 08:00:00 -2.3 41 Nordeste 64 Nordeste 0 -- -- 92
2021-01-09 07:00:00 -2.3 32 Nordeste 52 Este 0 -- -- 92
2021-01-09 06:00:00 -2.5 27 Nordeste 51 Nordeste 0 -- -- 93
2021-01-09 05:00:00 -2.6 28 Nordeste 48 Nordeste 0 -- -- 93
2021-01-09 04:00:00 -2.5 29 Nordeste 50 Este 0 -- -- 91
2021-01-09 03:00:00 -2 28 Nordeste 49 Nordeste 0 -- -- 83
2021-01-09 02:00:00 -1.8 30 Nordeste 48 Nordeste 0 -- -- 82
2021-01-09 01:00:00 -1.6 27 Nordeste 49 Nordeste 0 -- -- 81
2021-01-09 00:00:00 -1.5 31 Nordeste 49 Nordeste 0 -- -- 81
2021-01-08 23:00:00 -1.2 30 Nordeste 48 Nordeste 0 -- -- 80
2021-01-08 22:00:00 -1.1 28 Nordeste 46 Nordeste 0 -- -- 78
2021-01-08 21:00:00 -0.8 23 Nordeste 42 Este 0 -- -- 77
2021-01-08 20:00:00 -0.5 24 Nordeste 41 Nordeste 0 -- -- 76
2021-01-08 19:00:00 -0.1 23 Nordeste 39 Nordeste 0 -- -- 74
2021-01-08 18:00:00 0.3 24 Nordeste 39 Nordeste 0 -- -- 73
2021-01-08 17:00:00 0.8 21 Nordeste 44 Nordeste 0 -- -- 72
2021-01-08 16:00:00 1 21 Nordeste 43 Nordeste 0 -- -- 71
2021-01-08 15:00:00 0.3 27 Nordeste 54 Nordeste 0 -- -- 74
2021-01-08 14:00:00 -0.7 32 Nordeste 44 Nordeste 0 -- -- 79
2021-01-08 13:00:00 -1.9 27 Nordeste 40 Este 0 -- -- 84
2021-01-08 12:00:00 -3 23 Nordeste 39 Nordeste 0 -- -- 87
2021-01-08 11:00:00 -3.3 23 Nordeste 40 Nordeste 0 -- -- 88
2021-01-08 10:00:00 -5 14 Nordeste 21 Este 0 -- -- 92
2021-01-08 09:00:00 -5.6 14 Nordeste 21 Nordeste 0 -- -- 93
2021-01-08 08:00:00 -5.3 12 Nordeste 19 Nordeste 0 -- -- 92
2021-01-08 07:00:00 -5.1 13 Nordeste 21 Este 0 -- -- 92
2021-01-08 06:00:00 -5.1 9 Este 17 Nordeste 0 -- -- 92
2021-01-08 05:00:00 -4.9 8 Nordeste 19 Este 0 -- -- 91
2021-01-08 04:00:00 -4.7 13 Nordeste 23 Este 0 -- -- 90
2021-01-08 03:00:00 -4.5 15 Nordeste 24 Nordeste 0 -- -- 89
2021-01-08 02:00:00 -4.8 13 Nordeste 23 Nordeste 0 -- -- 90
2021-01-08 01:00:00 -4 18 Nordeste 23 Nordeste 0 -- -- 89
2021-01-08 00:00:00 -3.8 15 Nordeste 21 Nordeste 0 -- -- 89
2021-01-07 23:00:00 -3 16 Nordeste 24 Nordeste 0 -- -- 88
2021-01-07 22:00:00 -2.6 14 Nordeste 21 Nordeste 0 -- -- 86
2021-01-07 21:00:00 -1.8 13 Nordeste 23 Nordeste 0 -- -- 82
2021-01-07 20:00:00 -0.8 15 Nordeste 23 Nordeste 0 -- -- 79
2021-01-07 19:00:00 -0.7 11 Nordeste 16 Nordeste 0 -- -- 78
2021-01-07 18:00:00 1.3 11 Nordeste 27 Nordeste 0 -- -- 71
2021-01-07 17:00:00 2.9 18 Nordeste 28 Nordeste 0 -- -- 65
2021-01-07 16:00:00 2.7 19 Nordeste 28 Nordeste 0 -- -- 69
2021-01-07 15:00:00 2.3 22 Nordeste 32 Nordeste 0 -- -- 73
2021-01-07 14:00:00 1.4 21 Nordeste 34 Nordeste 0 -- -- 77
2021-01-07 13:00:00 0.6 23 Nordeste 33 Nordeste 0.2 -- -- 83
2021-01-07 12:00:00 -1 23 Nordeste 30 Nordeste 0 -- -- 85
2021-01-07 11:00:00 -2.7 15 Este 25 Nordeste 0 -- -- 88
2021-01-07 10:00:00 -4.5 6 Este 17 Este 0 -- -- 94
2021-01-07 09:00:00 -5.4 12 Este 30 Nordeste 0 -- -- 95
2021-01-07 08:00:00 -5.1 19 Nordeste 32 Nordeste 0 -- -- 95
2021-01-07 07:00:00 -4.9 14 Nordeste 28 Nordeste 0 -- -- 95
2021-01-07 06:00:00 -4.5 17 Nordeste 31 Nordeste 0 -- -- 94
2021-01-07 05:00:00 -4.9 19 Nordeste 31 Nordeste 0 -- -- 93
2021-01-07 04:00:00 -4.2 21 Nordeste 29 Nordeste 0 -- -- 91
2021-01-07 03:00:00 -3.3 18 Nordeste 28 Nordeste 0 -- -- 87
2021-01-07 02:00:00 -1.8 15 Nordeste 24 Nordeste 0 -- -- 82
2021-01-07 01:00:00 -2.9 12 Nordeste 22 Nordeste 0 -- -- 85
2021-01-07 00:00:00 -0.9 15 Este 24 Este 0 -- -- 78
2021-01-06 23:00:00 -0.8 12 Este 18 Este 0 -- -- 82
2021-01-06 22:00:00 -1.1 11 Nordeste 20 Este 0 -- -- 83
2021-01-06 21:00:00 -1.1 9 Este 17 Nordeste 0 -- -- 82
2021-01-06 20:00:00 -0.8 11 Nordeste 17 Este 0 -- -- 82
2021-01-06 19:00:00 -0.5 10 Nordeste 15 Nordeste 0 -- -- 82
2021-01-06 18:00:00 1.8 9 Este 20 Este 0 -- -- 73
2021-01-06 17:00:00 3.7 16 Nordeste 22 Nordeste 0 -- -- 64
2021-01-06 16:00:00 3.9 14 Nordeste 24 Este 0 -- -- 67
2021-01-06 15:00:00 4 10 Nordeste 19 Nordeste 0 -- -- 69
2021-01-06 14:00:00 4.2 6 Este 14 Este 0 -- -- 69
2021-01-06 13:00:00 3.5 7 Nordeste 12 Este 0 -- -- 71
2021-01-06 12:00:00 2.5 0 Calma 4 Sudoeste 0 -- -- 77
2021-01-06 11:00:00 -0.4 2 Sudoeste 4 Sudoeste 0 -- -- 87
2021-01-06 10:00:00 -4.4 0 Calma 4 Nordeste 0 -- -- 97
2021-01-06 09:00:00 -7.5 2 Sudeste 5 Sur 0 -- -- 95
2021-01-06 08:00:00 -7.4 3 Nordeste 4 Nordeste 0 -- -- 95
2021-01-06 07:00:00 -7.7 0 Calma 2 Nordeste 0 -- -- 93
2021-01-06 06:00:00 -7.6 0 Calma 3 Nordeste 0 -- -- 93
2021-01-06 05:00:00 -7 0 Calma -- -- 0 -- -- 94
2021-01-06 04:00:00 -7.2 2 Nordeste 3 Este 0 -- -- 93
2021-01-06 03:00:00 -6.7 0 Calma 2 Este 0 -- -- 94
2021-01-06 02:00:00 -6.3 0 Calma 3 Nordeste 0 -- -- 93
2021-01-06 01:00:00 -5.7 0 Calma 4 Nordeste 0 -- -- 93
2021-01-06 00:00:00 -5.8 2 Sudeste 4 Sudeste 0 -- -- 92
2021-01-05 23:00:00 -5.4 2 Este 4 Sudeste 0 -- -- 91
2021-01-05 22:00:00 -4.2 0 Calma 5 Nordeste 0 -- -- 92
2021-01-05 21:00:00 -4.6 3 Este 6 Este 0 -- -- 91
2021-01-05 20:00:00 -3.8 3 Este 5 Este 0 -- -- 89
2021-01-05 19:00:00 -2.9 3 Nordeste 5 Nordeste 0 -- -- 84
2021-01-05 18:00:00 3.4 0 Calma 9 Sudoeste 0 -- -- 60
2021-01-05 17:00:00 5.9 3 Sudoeste 8 Sur 0 -- -- 52
2021-01-05 16:00:00 5.6 2 Este 8 Sudeste 0 -- -- 54
2021-01-05 15:00:00 5 4 Sudeste 11 Sudeste 0 -- -- 57
2021-01-05 14:00:00 4.6 3 Sudoeste 8 Sudeste 0 -- -- 62
2021-01-05 13:00:00 3 3 Sudeste 9 Sudeste 0 -- -- 72
2021-01-05 12:00:00 0.7 3 Sur 9 Sur 0 -- -- 83
2021-01-05 11:00:00 -2.5 4 Sudeste 8 Sudeste 0 -- -- 91
2021-01-05 10:00:00 -5.2 2 Sudeste 3 Sudeste 0 -- -- 98
2021-01-05 09:00:00 -8.2 0 Calma 2 Nordeste 0 -- -- 95
2021-01-05 08:00:00 -7.9 0 Calma 2 Sudeste 0 -- -- 95
2021-01-05 07:00:00 -7.7 2 Nordeste 3 Nordeste 0 -- -- 95
2021-01-05 06:00:00 -7.5 2 Nordeste 2 Nordeste 0 -- -- 96
2021-01-05 05:00:00 -7.1 2 Este 3 Nordeste 0 -- -- 96
2021-01-05 04:00:00 -7 0 Calma 3 Este 0 -- -- 95
2021-01-05 03:00:00 -6.2 0 Calma 5 Nordeste 0 -- -- 96
2021-01-05 02:00:00 -6.1 0 Calma 5 Nordeste 0 -- -- 95
2021-01-05 01:00:00 -5.3 0 Calma 9 Sudoeste 0 -- -- 94
2021-01-05 00:00:00 -4.8 2 Nordeste 4 Nordeste 0 -- -- 96
2021-01-04 23:00:00 -5 3 Este 5 Nordeste 0 -- -- 94
2021-01-04 22:00:00 -3.9 3 Nordeste 6 Norte 0 -- -- 92
2021-01-04 21:00:00 -3.7 3 Norte 4 Norte 0 -- -- 95
2021-01-04 20:00:00 -3 0 Calma 2 Nordeste 0 -- -- 91
2021-01-04 19:00:00 0.7 2 Noroeste 11 Oeste 0 -- -- 80
2021-01-04 18:00:00 2.2 6 Oeste 16 Noroeste 0 -- -- 75
2021-01-04 17:00:00 3.5 10 Oeste 23 Noroeste 0 -- -- 69
2021-01-04 16:00:00 4.3 10 Noroeste 27 Noroeste 0 -- -- 67
2021-01-04 15:00:00 3.1 9 Oeste 23 Oeste 0 -- -- 75
2021-01-04 14:00:00 3.6 10 Noroeste 28 Oeste 0 -- -- 75
2021-01-04 13:00:00 3 13 Noroeste 24 Noroeste 0 -- -- 80
2021-01-04 12:00:00 2 13 Oeste 25 Oeste 0 -- -- 86
2021-01-04 11:00:00 1 12 Oeste 23 Oeste 0 -- -- 89
2021-01-04 10:00:00 -1.8 3 Sudoeste 7 Sudoeste 0 -- -- 100
2021-01-04 09:00:00 -3.6 2 Sudoeste 6 Sudoeste 0 -- -- 99
2021-01-04 08:00:00 -3.9 2 Sudoeste 4 Sudoeste 0 -- -- 97
2021-01-04 07:00:00 -3.3 3 Oeste 9 Sudoeste 0 -- -- 96
2021-01-04 06:00:00 -1.3 0 Calma 9 Noroeste 0 -- -- 96
2021-01-04 05:00:00 -0.3 6 Oeste 12 Noroeste 0 -- -- 96
2021-01-04 04:00:00 0.6 7 Oeste 18 Noroeste 0 -- -- 96
2021-01-04 03:00:00 0.7 6 Oeste 21 Oeste 0 -- -- 95
2021-01-04 02:00:00 0.7 8 Oeste 16 Oeste 0 -- -- 95
2021-01-04 01:00:00 1.1 8 Oeste 18 Oeste 0 -- -- 93
2021-01-04 00:00:00 1.3 6 Oeste 17 Oeste 0 -- -- 91
2021-01-03 23:00:00 1.2 8 Oeste 16 Oeste 0 -- -- 90
2021-01-03 22:00:00 0.7 6 Oeste 15 Noroeste 0 -- -- 91
2021-01-03 21:00:00 1.6 4 Oeste 18 Oeste 0 -- -- 86
2021-01-03 20:00:00 1.8 6 Oeste 14 Oeste 0 -- -- 83
2021-01-03 19:00:00 2.1 5 Oeste 23 Oeste 0 -- -- 79
2021-01-03 18:00:00 3.5 13 Oeste 27 Oeste 0 -- -- 73
2021-01-03 17:00:00 4.1 16 Oeste 34 Noroeste 0 -- -- 75
2021-01-03 16:00:00 4.4 18 Oeste 33 Noroeste 0 -- -- 75
2021-01-03 15:00:00 3.7 14 Noroeste 35 Oeste 0 -- -- 77
2021-01-03 14:00:00 3.8 14 Noroeste 26 Noroeste 0 -- -- 83
2021-01-03 13:00:00 1.4 10 Oeste 19 Oeste 0 -- -- 99
2021-01-03 12:00:00 -0.2 8 Oeste 17 Sudoeste 0 -- -- 100
2021-01-03 11:00:00 -1.1 6 Oeste 13 Oeste 0 -- -- 100
2021-01-03 10:00:00 -2.2 6 Oeste 10 Sudoeste 0 -- -- 100
2021-01-03 09:00:00 -2.5 4 Oeste 10 Oeste 0 -- -- 100
2021-01-03 08:00:00 -3 4 Sudoeste 9 Oeste 0 -- -- 99
2021-01-03 07:00:00 -4.5 0 Calma 5 Oeste 0 -- -- 98
2021-01-03 06:00:00 -5.8 0 Calma 4 Noroeste 0 -- -- 96
2021-01-03 05:00:00 -6.5 2 Sudeste 3 Sur 0 -- -- 96
2021-01-03 04:00:00 -6.1 0 Calma 4 Nordeste 0 -- -- 95
2021-01-03 03:00:00 -6 0 Calma 4 Nordeste 0 -- -- 93
2021-01-03 02:00:00 -4.7 0 Calma 4 Noroeste 0 -- -- 94
2021-01-03 01:00:00 -3.7 0 Calma 6 Noroeste 0 -- -- 90
2021-01-03 00:00:00 -3.2 2 Noroeste 8 Noroeste 0 -- -- 86
2021-01-02 23:00:00 -2.3 4 Noroeste 7 Noroeste 0 -- -- 97
2021-01-02 22:00:00 -4 0 Calma 4 Nordeste 0 -- -- 92
2021-01-02 21:00:00 -2.2 0 Calma 4 Nordeste 0 -- -- 90
2021-01-02 20:00:00 0.3 3 Noroeste 9 Norte 0 -- -- 85
2021-01-02 19:00:00 1.4 4 Norte 6 Norte 0 -- -- 73
2021-01-02 18:00:00 3.8 3 Noroeste 15 Noroeste 0 -- -- 64
2021-01-02 17:00:00 5.8 8 Noroeste 22 Norte 0 -- -- 57
2021-01-02 16:00:00 5.4 9 Norte 24 Nordeste 0 -- -- 53
2021-01-02 15:00:00 5 14 Norte 25 Nordeste 0 -- -- 57
2021-01-02 14:00:00 4.3 10 Norte 24 Norte 0 -- -- 62